sensor_id;sensor_type;location;lat;lon;timestamp;P1;durP1;ratioP1;P2;durP2;ratioP2
41255;SDS011;26989;45.524;10.938;2023-01-16T00:01:18;159.38;;;71.00;;
41255;SDS011;26989;45.524;10.938;2023-01-16T00:03:45;148.80;;;69.95;;
41255;SDS011;26989;45.524;10.938;2023-01-16T00:06:12;115.60;;;56.10;;
41255;SDS011;26989;45.524;10.938;2023-01-16T00:08:40;122.95;;;57.65;;
41255;SDS011;26989;45.524;10.938;2023-01-16T00:11:09;112.13;;;54.03;;
41255;SDS011;26989;45.524;10.938;2023-01-16T00:13:37;101.43;;;49.97;;
41255;SDS011;26989;45.524;10.938;2023-01-16T00:16:04;112.80;;;51.33;;
41255;SDS011;26989;45.524;10.938;2023-01-16T00:18:31;112.82;;;54.33;;
41255;SDS011;26989;45.524;10.938;2023-01-16T00:20:58;121.75;;;56.63;;
41255;SDS011;26989;45.524;10.938;2023-01-16T00:23:26;91.13;;;50.30;;
41255;SDS011;26989;45.524;10.938;2023-01-16T00:25:53;171.63;;;53.13;;
41255;SDS011;26989;45.524;10.938;2023-01-16T00:28:20;92.80;;;49.50;;
41255;SDS011;26989;45.524;10.938;2023-01-16T00:30:47;90.13;;;48.33;;
41255;SDS011;26989;45.524;10.938;2023-01-16T00:33:14;138.15;;;48.20;;
41255;SDS011;26989;45.524;10.938;2023-01-16T00:35:41;202.68;;;50.08;;
41255;SDS011;26989;45.524;10.938;2023-01-16T00:38:08;324.13;;;51.25;;
41255;SDS011;26989;45.524;10.938;2023-01-16T00:40:35;459.08;;;53.65;;
41255;SDS011;26989;45.524;10.938;2023-01-16T00:43:02;222.20;;;49.15;;
41255;SDS011;26989;45.524;10.938;2023-01-16T00:45:29;363.90;;;51.30;;
41255;SDS011;26989;45.524;10.938;2023-01-16T00:47:56;157.90;;;48.00;;
41255;SDS011;26989;45.524;10.938;2023-01-16T00:50:24;65.60;;;39.75;;
41255;SDS011;26989;45.524;10.938;2023-01-16T00:52:51;116.18;;;39.80;;
41255;SDS011;26989;45.524;10.938;2023-01-16T00:55:18;93.40;;;36.53;;
41255;SDS011;26989;45.524;10.938;2023-01-16T00:57:45;66.70;;;35.40;;
41255;SDS011;26989;45.524;10.938;2023-01-16T01:00:12;50.03;;;32.20;;
41255;SDS011;26989;45.524;10.938;2023-01-16T01:02:39;240.45;;;38.22;;
41255;SDS011;26989;45.524;10.938;2023-01-16T01:05:06;350.85;;;36.97;;
41255;SDS011;26989;45.524;10.938;2023-01-16T01:07:33;40.03;;;23.75;;
41255;SDS011;26989;45.524;10.938;2023-01-16T01:10:00;29.10;;;19.90;;
41255;SDS011;26989;45.524;10.938;2023-01-16T01:12:27;23.15;;;17.95;;
41255;SDS011;26989;45.524;10.938;2023-01-16T01:14:54;22.55;;;17.30;;
41255;SDS011;26989;45.524;10.938;2023-01-16T01:17:21;21.92;;;17.02;;
41255;SDS011;26989;45.524;10.938;2023-01-16T01:19:48;19.70;;;16.45;;
41255;SDS011;26989;45.524;10.938;2023-01-16T01:22:15;22.20;;;16.45;;
41255;SDS011;26989;45.524;10.938;2023-01-16T01:24:42;22.05;;;16.85;;
41255;SDS011;26989;45.524;10.938;2023-01-16T01:27:12;23.00;;;17.42;;
41255;SDS011;26989;45.524;10.938;2023-01-16T01:29:40;21.80;;;16.77;;
41255;SDS011;26989;45.524;10.938;2023-01-16T01:32:07;24.13;;;17.92;;
41255;SDS011;26989;45.524;10.938;2023-01-16T01:34:34;24.00;;;17.98;;
41255;SDS011;26989;45.524;10.938;2023-01-16T01:37:02;25.27;;;18.45;;
41255;SDS011;26989;45.524;10.938;2023-01-16T01:39:30;25.80;;;19.58;;
41255;SDS011;26989;45.524;10.938;2023-01-16T01:41:57;27.73;;;20.05;;
41255;SDS011;26989;45.524;10.938;2023-01-16T01:47:31;32.88;;;21.83;;
41255;SDS011;26989;45.524;10.938;2023-01-16T01:50:01;33.20;;;21.98;;
41255;SDS011;26989;45.524;10.938;2023-01-16T01:52:35;33.72;;;23.40;;
41255;SDS011;26989;45.524;10.938;2023-01-16T01:55:03;39.95;;;24.33;;
41255;SDS011;26989;45.524;10.938;2023-01-16T01:57:34;37.55;;;25.17;;
41255;SDS011;26989;45.524;10.938;2023-01-16T02:00:10;39.97;;;25.20;;
41255;SDS011;26989;45.524;10.938;2023-01-16T02:02:42;37.95;;;24.83;;
41255;SDS011;26989;45.524;10.938;2023-01-16T02:05:12;36.45;;;24.25;;
41255;SDS011;26989;45.524;10.938;2023-01-16T02:07:45;39.05;;;25.65;;
41255;SDS011;26989;45.524;10.938;2023-01-16T02:13:05;36.00;;;24.88;;
41255;SDS011;26989;45.524;10.938;2023-01-16T02:15:32;39.05;;;24.73;;
41255;SDS011;26989;45.524;10.938;2023-01-16T02:18:00;36.90;;;24.45;;
41255;SDS011;26989;45.524;10.938;2023-01-16T02:23:52;36.30;;;24.30;;
41255;SDS011;26989;45.524;10.938;2023-01-16T02:35:08;30.35;;;21.83;;
41255;SDS011;26989;45.524;10.938;2023-01-16T02:37:49;33.20;;;22.20;;
41255;SDS011;26989;45.524;10.938;2023-01-16T02:48:28;27.10;;;20.33;;
41255;SDS011;26989;45.524;10.938;2023-01-16T02:59:55;28.63;;;20.23;;
41255;SDS011;26989;45.524;10.938;2023-01-16T03:02:23;24.20;;;18.35;;
41255;SDS011;26989;45.524;10.938;2023-01-16T03:04:51;26.40;;;18.38;;
41255;SDS011;26989;45.524;10.938;2023-01-16T03:15:28;25.65;;;18.40;;
41255;SDS011;26989;45.524;10.938;2023-01-16T03:18:10;25.08;;;18.27;;
41255;SDS011;26989;45.524;10.938;2023-01-16T03:20:50;28.05;;;19.88;;
41255;SDS011;26989;45.524;10.938;2023-01-16T03:26:04;29.08;;;20.23;;
41255;SDS011;26989;45.524;10.938;2023-01-16T03:36:41;40.72;;;19.60;;
41255;SDS011;26989;45.524;10.938;2023-01-16T03:39:30;40.97;;;17.65;;
41255;SDS011;26989;45.524;10.938;2023-01-16T03:42:04;152.70;;;22.10;;
41255;SDS011;26989;45.524;10.938;2023-01-16T03:44:36;35.50;;;16.45;;
41255;SDS011;26989;45.524;10.938;2023-01-16T03:47:09;44.33;;;18.00;;
41255;SDS011;26989;45.524;10.938;2023-01-16T03:49:43;29.90;;;17.67;;
41255;SDS011;26989;45.524;10.938;2023-01-16T03:52:14;35.10;;;16.83;;
41255;SDS011;26989;45.524;10.938;2023-01-16T03:54:59;42.92;;;18.17;;
41255;SDS011;26989;45.524;10.938;2023-01-16T03:57:48;68.13;;;19.75;;
41255;SDS011;26989;45.524;10.938;2023-01-16T04:00:19;53.28;;;21.63;;
41255;SDS011;26989;45.524;10.938;2023-01-16T04:05:37;25.30;;;16.25;;
41255;SDS011;26989;45.524;10.938;2023-01-16T04:08:12;19.25;;;13.05;;
41255;SDS011;26989;45.524;10.938;2023-01-16T04:10:44;20.83;;;14.00;;
41255;SDS011;26989;45.524;10.938;2023-01-16T04:13:15;21.30;;;13.95;;
41255;SDS011;26989;45.524;10.938;2023-01-16T04:15:50;18.90;;;11.65;;
41255;SDS011;26989;45.524;10.938;2023-01-16T04:18:20;17.38;;;11.13;;
41255;SDS011;26989;45.524;10.938;2023-01-16T04:20:50;17.80;;;10.93;;
41255;SDS011;26989;45.524;10.938;2023-01-16T04:23:17;17.00;;;9.88;;
41255;SDS011;26989;45.524;10.938;2023-01-16T04:25:44;13.70;;;7.95;;
41255;SDS011;26989;45.524;10.938;2023-01-16T04:28:11;14.98;;;9.85;;
41255;SDS011;26989;45.524;10.938;2023-01-16T04:30:38;13.23;;;9.05;;
41255;SDS011;26989;45.524;10.938;2023-01-16T04:33:06;13.88;;;9.05;;
41255;SDS011;26989;45.524;10.938;2023-01-16T04:35:33;15.98;;;10.15;;
41255;SDS011;26989;45.524;10.938;2023-01-16T04:37:59;21.00;;;12.73;;
41255;SDS011;26989;45.524;10.938;2023-01-16T04:40:28;17.60;;;12.55;;
41255;SDS011;26989;45.524;10.938;2023-01-16T04:42:55;16.60;;;11.63;;
41255;SDS011;26989;45.524;10.938;2023-01-16T04:45:22;20.08;;;12.15;;
41255;SDS011;26989;45.524;10.938;2023-01-16T04:47:49;13.93;;;9.25;;
41255;SDS011;26989;45.524;10.938;2023-01-16T04:50:18;13.35;;;9.30;;
41255;SDS011;26989;45.524;10.938;2023-01-16T04:52:45;13.05;;;8.80;;
41255;SDS011;26989;45.524;10.938;2023-01-16T04:55:12;15.02;;;9.57;;
41255;SDS011;26989;45.524;10.938;2023-01-16T04:57:39;15.20;;;9.73;;
41255;SDS011;26989;45.524;10.938;2023-01-16T05:00:08;13.77;;;9.30;;
41255;SDS011;26989;45.524;10.938;2023-01-16T05:02:36;14.43;;;9.18;;
41255;SDS011;26989;45.524;10.938;2023-01-16T05:05:04;15.65;;;9.43;;
41255;SDS011;26989;45.524;10.938;2023-01-16T05:07:31;11.82;;;7.35;;
41255;SDS011;26989;45.524;10.938;2023-01-16T05:09:58;11.30;;;7.35;;
41255;SDS011;26989;45.524;10.938;2023-01-16T05:12:28;13.50;;;8.90;;
41255;SDS011;26989;45.524;10.938;2023-01-16T05:14:56;12.00;;;7.72;;
41255;SDS011;26989;45.524;10.938;2023-01-16T05:17:23;11.82;;;8.23;;
41255;SDS011;26989;45.524;10.938;2023-01-16T05:19:51;15.38;;;9.75;;
41255;SDS011;26989;45.524;10.938;2023-01-16T05:22:19;13.65;;;8.18;;
41255;SDS011;26989;45.524;10.938;2023-01-16T05:24:47;10.82;;;7.05;;
41255;SDS011;26989;45.524;10.938;2023-01-16T05:27:14;11.70;;;6.65;;
41255;SDS011;26989;45.524;10.938;2023-01-16T05:29:41;10.13;;;6.97;;
41255;SDS011;26989;45.524;10.938;2023-01-16T05:32:08;11.52;;;7.07;;
41255;SDS011;26989;45.524;10.938;2023-01-16T05:34:35;9.05;;;6.22;;
41255;SDS011;26989;45.524;10.938;2023-01-16T05:37:02;9.70;;;5.93;;
41255;SDS011;26989;45.524;10.938;2023-01-16T05:39:29;11.07;;;6.85;;
41255;SDS011;26989;45.524;10.938;2023-01-16T05:42:03;11.88;;;6.60;;
41255;SDS011;26989;45.524;10.938;2023-01-16T05:44:48;12.23;;;7.00;;
41255;SDS011;26989;45.524;10.938;2023-01-16T05:47:15;10.65;;;6.65;;
41255;SDS011;26989;45.524;10.938;2023-01-16T05:49:42;10.95;;;6.88;;
41255;SDS011;26989;45.524;10.938;2023-01-16T05:52:09;13.25;;;7.97;;
41255;SDS011;26989;45.524;10.938;2023-01-16T05:54:36;12.25;;;7.57;;
41255;SDS011;26989;45.524;10.938;2023-01-16T05:57:03;15.32;;;8.07;;
41255;SDS011;26989;45.524;10.938;2023-01-16T05:59:30;12.20;;;8.48;;
41255;SDS011;26989;45.524;10.938;2023-01-16T06:01:57;12.40;;;7.95;;
41255;SDS011;26989;45.524;10.938;2023-01-16T06:04:24;12.60;;;7.60;;
41255;SDS011;26989;45.524;10.938;2023-01-16T06:06:51;14.98;;;9.65;;
41255;SDS011;26989;45.524;10.938;2023-01-16T06:09:19;14.27;;;9.25;;
41255;SDS011;26989;45.524;10.938;2023-01-16T06:11:46;13.90;;;8.45;;
41255;SDS011;26989;45.524;10.938;2023-01-16T06:14:13;15.57;;;8.88;;
41255;SDS011;26989;45.524;10.938;2023-01-16T06:16:40;13.02;;;9.10;;
41255;SDS011;26989;45.524;10.938;2023-01-16T06:19:06;10.15;;;8.18;;
41255;SDS011;26989;45.524;10.938;2023-01-16T06:21:33;11.95;;;7.97;;
41255;SDS011;26989;45.524;10.938;2023-01-16T06:24:00;12.98;;;8.43;;
41255;SDS011;26989;45.524;10.938;2023-01-16T06:26:27;13.07;;;7.85;;
41255;SDS011;26989;45.524;10.938;2023-01-16T06:28:54;12.88;;;7.50;;
41255;SDS011;26989;45.524;10.938;2023-01-16T06:31:22;14.65;;;9.18;;
41255;SDS011;26989;45.524;10.938;2023-01-16T06:33:50;15.38;;;8.88;;
41255;SDS011;26989;45.524;10.938;2023-01-16T06:36:17;15.52;;;10.13;;
41255;SDS011;26989;45.524;10.938;2023-01-16T06:38:44;16.10;;;10.63;;
41255;SDS011;26989;45.524;10.938;2023-01-16T06:41:11;14.48;;;9.95;;
41255;SDS011;26989;45.524;10.938;2023-01-16T06:43:41;16.95;;;9.38;;
41255;SDS011;26989;45.524;10.938;2023-01-16T06:46:08;17.80;;;10.35;;
41255;SDS011;26989;45.524;10.938;2023-01-16T06:48:35;24.27;;;13.77;;
41255;SDS011;26989;45.524;10.938;2023-01-16T06:51:02;20.85;;;12.90;;
41255;SDS011;26989;45.524;10.938;2023-01-16T06:53:30;17.42;;;10.52;;
41255;SDS011;26989;45.524;10.938;2023-01-16T06:56:02;16.70;;;10.73;;
41255;SDS011;26989;45.524;10.938;2023-01-16T06:58:29;23.98;;;14.05;;
41255;SDS011;26989;45.524;10.938;2023-01-16T07:00:58;24.20;;;14.18;;
41255;SDS011;26989;45.524;10.938;2023-01-16T07:03:25;20.38;;;11.60;;
41255;SDS011;26989;45.524;10.938;2023-01-16T07:05:53;24.70;;;13.63;;
41255;SDS011;26989;45.524;10.938;2023-01-16T07:08:20;16.83;;;11.45;;
41255;SDS011;26989;45.524;10.938;2023-01-16T07:10:50;17.67;;;11.32;;
41255;SDS011;26989;45.524;10.938;2023-01-16T07:13:17;18.20;;;11.27;;
41255;SDS011;26989;45.524;10.938;2023-01-16T07:15:47;19.25;;;12.68;;
41255;SDS011;26989;45.524;10.938;2023-01-16T07:18:33;18.85;;;13.65;;
41255;SDS011;26989;45.524;10.938;2023-01-16T07:21:18;20.38;;;13.75;;
41255;SDS011;26989;45.524;10.938;2023-01-16T07:24:07;22.17;;;13.65;;
41255;SDS011;26989;45.524;10.938;2023-01-16T07:26:37;23.63;;;11.82;;
41255;SDS011;26989;45.524;10.938;2023-01-16T07:29:07;16.73;;;11.18;;
41255;SDS011;26989;45.524;10.938;2023-01-16T07:31:34;16.73;;;10.85;;
41255;SDS011;26989;45.524;10.938;2023-01-16T07:34:02;17.52;;;11.40;;
41255;SDS011;26989;45.524;10.938;2023-01-16T07:36:30;17.95;;;12.80;;
41255;SDS011;26989;45.524;10.938;2023-01-16T07:39:10;20.70;;;12.63;;
41255;SDS011;26989;45.524;10.938;2023-01-16T07:41:40;16.55;;;11.23;;
41255;SDS011;26989;45.524;10.938;2023-01-16T07:46:53;19.48;;;12.95;;
41255;SDS011;26989;45.524;10.938;2023-01-16T07:49:20;27.27;;;17.83;;
41255;SDS011;26989;45.524;10.938;2023-01-16T07:51:47;33.40;;;20.38;;
41255;SDS011;26989;45.524;10.938;2023-01-16T07:54:14;24.05;;;15.35;;
41255;SDS011;26989;45.524;10.938;2023-01-16T07:56:41;21.00;;;14.38;;
41255;SDS011;26989;45.524;10.938;2023-01-16T07:59:09;25.58;;;17.55;;
41255;SDS011;26989;45.524;10.938;2023-01-16T08:01:38;25.63;;;16.55;;
41255;SDS011;26989;45.524;10.938;2023-01-16T08:04:19;24.63;;;16.77;;
41255;SDS011;26989;45.524;10.938;2023-01-16T08:06:47;20.27;;;14.63;;
41255;SDS011;26989;45.524;10.938;2023-01-16T08:09:14;23.58;;;14.68;;
41255;SDS011;26989;45.524;10.938;2023-01-16T08:11:42;26.10;;;16.73;;
41255;SDS011;26989;45.524;10.938;2023-01-16T08:14:13;19.90;;;13.52;;
41255;SDS011;26989;45.524;10.938;2023-01-16T08:16:40;20.05;;;14.60;;
41255;SDS011;26989;45.524;10.938;2023-01-16T08:19:08;25.85;;;16.98;;
41255;SDS011;26989;45.524;10.938;2023-01-16T08:21:34;20.85;;;14.95;;
41255;SDS011;26989;45.524;10.938;2023-01-16T08:24:03;23.13;;;15.02;;
41255;SDS011;26989;45.524;10.938;2023-01-16T08:26:44;19.13;;;12.45;;
41255;SDS011;26989;45.524;10.938;2023-01-16T08:29:31;23.30;;;12.75;;
41255;SDS011;26989;45.524;10.938;2023-01-16T08:31:58;20.20;;;12.82;;
41255;SDS011;26989;45.524;10.938;2023-01-16T08:34:31;16.38;;;12.10;;
41255;SDS011;26989;45.524;10.938;2023-01-16T08:39:30;15.68;;;9.95;;
41255;SDS011;26989;45.524;10.938;2023-01-16T08:41:58;16.23;;;10.52;;
41255;SDS011;26989;45.524;10.938;2023-01-16T08:44:44;14.55;;;11.02;;
41255;SDS011;26989;45.524;10.938;2023-01-16T08:47:30;14.93;;;10.35;;
41255;SDS011;26989;45.524;10.938;2023-01-16T08:50:16;18.75;;;12.25;;
41255;SDS011;26989;45.524;10.938;2023-01-16T08:53:03;18.90;;;11.07;;
41255;SDS011;26989;45.524;10.938;2023-01-16T08:55:31;21.60;;;11.65;;
41255;SDS011;26989;45.524;10.938;2023-01-16T08:57:58;16.58;;;10.18;;
41255;SDS011;26989;45.524;10.938;2023-01-16T09:00:26;14.80;;;10.45;;
41255;SDS011;26989;45.524;10.938;2023-01-16T09:02:57;15.00;;;10.23;;
41255;SDS011;26989;45.524;10.938;2023-01-16T09:05:25;14.40;;;9.80;;
41255;SDS011;26989;45.524;10.938;2023-01-16T09:07:54;35.20;;;19.92;;
41255;SDS011;26989;45.524;10.938;2023-01-16T09:10:25;23.23;;;14.18;;
41255;SDS011;26989;45.524;10.938;2023-01-16T09:12:55;22.63;;;13.43;;
41255;SDS011;26989;45.524;10.938;2023-01-16T09:15:43;18.38;;;11.88;;
41255;SDS011;26989;45.524;10.938;2023-01-16T09:18:10;15.85;;;11.35;;
41255;SDS011;26989;45.524;10.938;2023-01-16T09:20:45;20.27;;;12.70;;
41255;SDS011;26989;45.524;10.938;2023-01-16T09:23:12;20.25;;;13.15;;
41255;SDS011;26989;45.524;10.938;2023-01-16T09:25:39;22.40;;;13.75;;
41255;SDS011;26989;45.524;10.938;2023-01-16T09:28:10;21.23;;;14.23;;
41255;SDS011;26989;45.524;10.938;2023-01-16T09:30:39;21.27;;;14.30;;
41255;SDS011;26989;45.524;10.938;2023-01-16T09:33:11;24.23;;;15.65;;
41255;SDS011;26989;45.524;10.938;2023-01-16T09:35:56;22.73;;;15.10;;
41255;SDS011;26989;45.524;10.938;2023-01-16T09:38:24;26.80;;;16.75;;
41255;SDS011;26989;45.524;10.938;2023-01-16T09:40:56;26.63;;;18.52;;
41255;SDS011;26989;45.524;10.938;2023-01-16T09:43:41;26.98;;;15.60;;
41255;SDS011;26989;45.524;10.938;2023-01-16T09:48:50;25.75;;;15.98;;
41255;SDS011;26989;45.524;10.938;2023-01-16T09:51:38;24.58;;;15.93;;
41255;SDS011;26989;45.524;10.938;2023-01-16T09:54:30;23.05;;;14.30;;
41255;SDS011;26989;45.524;10.938;2023-01-16T09:57:20;24.48;;;14.45;;
41255;SDS011;26989;45.524;10.938;2023-01-16T10:00:10;23.00;;;14.15;;
41255;SDS011;26989;45.524;10.938;2023-01-16T10:02:46;22.35;;;14.23;;
41255;SDS011;26989;45.524;10.938;2023-01-16T10:05:13;17.33;;;11.80;;
41255;SDS011;26989;45.524;10.938;2023-01-16T10:30:27;20.05;;;13.35;;
41255;SDS011;26989;45.524;10.938;2023-01-16T10:33:29;21.10;;;14.63;;
41255;SDS011;26989;45.524;10.938;2023-01-16T10:36:19;27.83;;;16.92;;
41255;SDS011;26989;45.524;10.938;2023-01-16T10:38:48;24.88;;;15.70;;
41255;SDS011;26989;45.524;10.938;2023-01-16T10:44:38;24.40;;;16.33;;
41255;SDS011;26989;45.524;10.938;2023-01-16T10:47:29;27.95;;;17.23;;
41255;SDS011;26989;45.524;10.938;2023-01-16T10:50:20;25.85;;;15.20;;
41255;SDS011;26989;45.524;10.938;2023-01-16T10:53:05;25.35;;;15.13;;
41255;SDS011;26989;45.524;10.938;2023-01-16T10:55:37;24.55;;;15.00;;
41255;SDS011;26989;45.524;10.938;2023-01-16T11:01:09;29.08;;;17.05;;
41255;SDS011;26989;45.524;10.938;2023-01-16T11:03:44;31.17;;;17.35;;
41255;SDS011;26989;45.524;10.938;2023-01-16T11:09:03;32.80;;;19.95;;
41255;SDS011;26989;45.524;10.938;2023-01-16T11:11:43;32.90;;;19.02;;
41255;SDS011;26989;45.524;10.938;2023-01-16T11:14:31;34.75;;;20.10;;
41255;SDS011;26989;45.524;10.938;2023-01-16T11:20:19;36.20;;;19.67;;
41255;SDS011;26989;45.524;10.938;2023-01-16T11:22:55;28.65;;;15.55;;
41255;SDS011;26989;45.524;10.938;2023-01-16T11:25:44;26.20;;;15.98;;
41255;SDS011;26989;45.524;10.938;2023-01-16T11:28:16;22.17;;;13.68;;
41255;SDS011;26989;45.524;10.938;2023-01-16T11:33:34;13.65;;;7.72;;
41255;SDS011;26989;45.524;10.938;2023-01-16T11:36:11;14.55;;;8.52;;
41255;SDS011;26989;45.524;10.938;2023-01-16T11:38:48;11.27;;;7.22;;
41255;SDS011;26989;45.524;10.938;2023-01-16T11:41:36;12.18;;;7.80;;
41255;SDS011;26989;45.524;10.938;2023-01-16T11:44:18;12.65;;;7.43;;
41255;SDS011;26989;45.524;10.938;2023-01-16T11:47:26;12.98;;;7.70;;
41255;SDS011;26989;45.524;10.938;2023-01-16T11:50:21;12.10;;;7.43;;
41255;SDS011;26989;45.524;10.938;2023-01-16T11:52:52;9.80;;;6.53;;
41255;SDS011;26989;45.524;10.938;2023-01-16T11:55:55;9.90;;;5.80;;
41255;SDS011;26989;45.524;10.938;2023-01-16T12:08:11;6.30;;;4.55;;
41255;SDS011;26989;45.524;10.938;2023-01-16T12:20:25;7.15;;;4.15;;
41255;SDS011;26989;45.524;10.938;2023-01-16T12:36:03;5.72;;;4.15;;
41255;SDS011;26989;45.524;10.938;2023-01-16T12:39:02;9.55;;;8.15;;
41255;SDS011;26989;45.524;10.938;2023-01-16T12:59:28;5.80;;;4.03;;
41255;SDS011;26989;45.524;10.938;2023-01-16T13:05:17;6.32;;;4.03;;
41255;SDS011;26989;45.524;10.938;2023-01-16T13:08:06;5.18;;;3.28;;
41255;SDS011;26989;45.524;10.938;2023-01-16T13:11:14;5.50;;;3.78;;
41255;SDS011;26989;45.524;10.938;2023-01-16T13:17:58;6.30;;;3.88;;
41255;SDS011;26989;45.524;10.938;2023-01-16T13:20:19;9.13;;;5.45;;
41255;SDS011;26989;45.524;10.938;2023-01-16T13:22:55;9.25;;;5.03;;
41255;SDS011;26989;45.524;10.938;2023-01-16T13:26:00;11.02;;;5.95;;
41255;SDS011;26989;45.524;10.938;2023-01-16T13:28:57;11.73;;;7.07;;
41255;SDS011;26989;45.524;10.938;2023-01-16T13:31:44;18.45;;;11.43;;
41255;SDS011;26989;45.524;10.938;2023-01-16T13:37:26;10.30;;;7.70;;
41255;SDS011;26989;45.524;10.938;2023-01-16T13:40:02;23.08;;;11.60;;
41255;SDS011;26989;45.524;10.938;2023-01-16T13:42:39;101.13;;;70.90;;
41255;SDS011;26989;45.524;10.938;2023-01-16T13:45:30;14.32;;;8.93;;
41255;SDS011;26989;45.524;10.938;2023-01-16T13:48:15;10.27;;;6.18;;
41255;SDS011;26989;45.524;10.938;2023-01-16T13:53:43;9.32;;;6.07;;
41255;SDS011;26989;45.524;10.938;2023-01-16T13:56:18;8.68;;;5.63;;
41255;SDS011;26989;45.524;10.938;2023-01-16T13:59:00;8.60;;;6.13;;
41255;SDS011;26989;45.524;10.938;2023-01-16T14:01:35;10.60;;;6.47;;
41255;SDS011;26989;45.524;10.938;2023-01-16T14:04:28;8.85;;;5.82;;
41255;SDS011;26989;45.524;10.938;2023-01-16T14:07:44;10.27;;;6.55;;
41255;SDS011;26989;45.524;10.938;2023-01-16T14:10:23;10.93;;;6.82;;
41255;SDS011;26989;45.524;10.938;2023-01-16T14:13:01;9.70;;;5.63;;
41255;SDS011;26989;45.524;10.938;2023-01-16T14:21:18;7.82;;;5.15;;
41255;SDS011;26989;45.524;10.938;2023-01-16T14:23:57;9.85;;;5.75;;
41255;SDS011;26989;45.524;10.938;2023-01-16T14:26:54;8.55;;;5.22;;
41255;SDS011;26989;45.524;10.938;2023-01-16T14:29:32;6.57;;;4.43;;
41255;SDS011;26989;45.524;10.938;2023-01-16T14:32:05;11.27;;;5.40;;
41255;SDS011;26989;45.524;10.938;2023-01-16T14:38:15;7.15;;;5.13;;
41255;SDS011;26989;45.524;10.938;2023-01-16T14:40:49;7.00;;;3.90;;
41255;SDS011;26989;45.524;10.938;2023-01-16T14:46:58;11.43;;;5.97;;
41255;SDS011;26989;45.524;10.938;2023-01-16T14:50:16;9.15;;;5.22;;
41255;SDS011;26989;45.524;10.938;2023-01-16T14:53:18;8.90;;;3.78;;
41255;SDS011;26989;45.524;10.938;2023-01-16T14:56:13;7.43;;;3.83;;
41255;SDS011;26989;45.524;10.938;2023-01-16T14:58:52;7.13;;;4.32;;
41255;SDS011;26989;45.524;10.938;2023-01-16T15:01:40;8.32;;;3.90;;
41255;SDS011;26989;45.524;10.938;2023-01-16T15:16:01;9.65;;;5.25;;
41255;SDS011;26989;45.524;10.938;2023-01-16T15:18:32;14.57;;;7.72;;
41255;SDS011;26989;45.524;10.938;2023-01-16T15:21:28;10.57;;;5.53;;
41255;SDS011;26989;45.524;10.938;2023-01-16T15:24:18;7.40;;;4.90;;
41255;SDS011;26989;45.524;10.938;2023-01-16T15:26:54;8.38;;;5.18;;
41255;SDS011;26989;45.524;10.938;2023-01-16T15:29:45;8.70;;;5.20;;
41255;SDS011;26989;45.524;10.938;2023-01-16T15:32:52;10.85;;;5.82;;
41255;SDS011;26989;45.524;10.938;2023-01-16T15:35:21;8.65;;;5.57;;
41255;SDS011;26989;45.524;10.938;2023-01-16T15:37:50;10.60;;;5.30;;
41255;SDS011;26989;45.524;10.938;2023-01-16T15:42:59;10.00;;;5.65;;
41255;SDS011;26989;45.524;10.938;2023-01-16T15:46:02;10.98;;;5.60;;
41255;SDS011;26989;45.524;10.938;2023-01-16T15:51:58;8.68;;;4.60;;
41255;SDS011;26989;45.524;10.938;2023-01-16T15:54:26;8.95;;;4.88;;
41255;SDS011;26989;45.524;10.938;2023-01-16T15:56:53;10.10;;;4.82;;
41255;SDS011;26989;45.524;10.938;2023-01-16T15:59:31;8.18;;;4.50;;
41255;SDS011;26989;45.524;10.938;2023-01-16T16:04:44;8.50;;;4.95;;
41255;SDS011;26989;45.524;10.938;2023-01-16T16:07:14;7.78;;;4.50;;
41255;SDS011;26989;45.524;10.938;2023-01-16T16:09:43;9.65;;;4.43;;
41255;SDS011;26989;45.524;10.938;2023-01-16T16:12:14;7.65;;;4.65;;
41255;SDS011;26989;45.524;10.938;2023-01-16T16:14:41;14.93;;;7.85;;
41255;SDS011;26989;45.524;10.938;2023-01-16T16:17:28;13.15;;;6.68;;
41255;SDS011;26989;45.524;10.938;2023-01-16T16:20:24;10.25;;;6.05;;
41255;SDS011;26989;45.524;10.938;2023-01-16T16:22:54;9.68;;;6.40;;
41255;SDS011;26989;45.524;10.938;2023-01-16T16:25:34;11.45;;;6.85;;
41255;SDS011;26989;45.524;10.938;2023-01-16T16:28:04;10.45;;;6.97;;
41255;SDS011;26989;45.524;10.938;2023-01-16T16:30:43;11.55;;;7.03;;
41255;SDS011;26989;45.524;10.938;2023-01-16T16:33:16;10.45;;;6.57;;
41255;SDS011;26989;45.524;10.938;2023-01-16T16:35:48;15.30;;;6.57;;
41255;SDS011;26989;45.524;10.938;2023-01-16T16:38:27;13.95;;;6.13;;
41255;SDS011;26989;45.524;10.938;2023-01-16T16:41:44;10.50;;;4.55;;
41255;SDS011;26989;45.524;10.938;2023-01-16T16:44:21;6.45;;;3.40;;
41255;SDS011;26989;45.524;10.938;2023-01-16T16:47:14;8.73;;;4.47;;
41255;SDS011;26989;45.524;10.938;2023-01-16T16:49:59;8.48;;;5.45;;
41255;SDS011;26989;45.524;10.938;2023-01-16T16:55:48;20.75;;;12.57;;
41255;SDS011;26989;45.524;10.938;2023-01-16T16:58:46;21.00;;;12.45;;
41255;SDS011;26989;45.524;10.938;2023-01-16T17:01:30;19.58;;;11.00;;
41255;SDS011;26989;45.524;10.938;2023-01-16T17:04:01;13.30;;;10.10;;
41255;SDS011;26989;45.524;10.938;2023-01-16T17:06:45;15.80;;;9.50;;
41255;SDS011;26989;45.524;10.938;2023-01-16T17:09:15;11.57;;;8.80;;
41255;SDS011;26989;45.524;10.938;2023-01-16T17:11:46;15.07;;;9.38;;
41255;SDS011;26989;45.524;10.938;2023-01-16T17:14:13;13.40;;;9.07;;
41255;SDS011;26989;45.524;10.938;2023-01-16T17:16:40;18.60;;;12.00;;
41255;SDS011;26989;45.524;10.938;2023-01-16T17:21:43;15.05;;;9.60;;
41255;SDS011;26989;45.524;10.938;2023-01-16T17:24:16;11.75;;;7.40;;
41255;SDS011;26989;45.524;10.938;2023-01-16T17:26:45;10.38;;;7.10;;
41255;SDS011;26989;45.524;10.938;2023-01-16T17:29:14;11.43;;;6.18;;
41255;SDS011;26989;45.524;10.938;2023-01-16T17:31:59;7.30;;;4.20;;
41255;SDS011;26989;45.524;10.938;2023-01-16T17:37:53;6.07;;;4.40;;
41255;SDS011;26989;45.524;10.938;2023-01-16T17:40:39;8.00;;;4.88;;
41255;SDS011;26989;45.524;10.938;2023-01-16T17:43:12;7.55;;;4.68;;
41255;SDS011;26989;45.524;10.938;2023-01-16T17:46:08;7.10;;;3.60;;
41255;SDS011;26989;45.524;10.938;2023-01-16T17:48:39;6.93;;;4.22;;
41255;SDS011;26989;45.524;10.938;2023-01-16T17:51:09;8.45;;;4.30;;
41255;SDS011;26989;45.524;10.938;2023-01-16T17:57:27;5.35;;;3.97;;
41255;SDS011;26989;45.524;10.938;2023-01-16T18:00:09;5.10;;;3.58;;
41255;SDS011;26989;45.524;10.938;2023-01-16T18:02:37;5.57;;;3.78;;
41255;SDS011;26989;45.524;10.938;2023-01-16T18:05:07;5.03;;;4.20;;
41255;SDS011;26989;45.524;10.938;2023-01-16T18:07:34;7.07;;;4.45;;
41255;SDS011;26989;45.524;10.938;2023-01-16T18:10:02;11.30;;;5.13;;
41255;SDS011;26989;45.524;10.938;2023-01-16T18:12:43;8.85;;;5.40;;
41255;SDS011;26989;45.524;10.938;2023-01-16T18:15:30;11.43;;;5.53;;
41255;SDS011;26989;45.524;10.938;2023-01-16T18:18:17;7.20;;;4.90;;
41255;SDS011;26989;45.524;10.938;2023-01-16T18:20:45;9.70;;;5.00;;
41255;SDS011;26989;45.524;10.938;2023-01-16T18:23:12;7.32;;;5.00;;
41255;SDS011;26989;45.524;10.938;2023-01-16T18:25:46;6.75;;;4.90;;
41255;SDS011;26989;45.524;10.938;2023-01-16T18:28:21;10.50;;;5.53;;